createdAt,value
2022-11-15T00:01:18.941Z,49.70
2022-11-15T00:03:48.533Z,49.70
2022-11-15T00:06:16.453Z,49.70
2022-11-15T00:08:44.386Z,49.80
2022-11-15T00:11:14.069Z,49.80
2022-11-15T00:13:42.069Z,49.80
2022-11-15T00:16:11.444Z,49.70
2022-11-15T00:18:40.471Z,49.60
2022-11-15T00:21:14.940Z,49.60
2022-11-15T00:23:43.122Z,49.60
2022-11-15T00:26:14.385Z,49.60
2022-11-15T00:28:43.019Z,49.60
2022-11-15T00:31:15.037Z,49.50
2022-11-15T00:33:46.146Z,49.50
2022-11-15T00:36:15.482Z,49.40
2022-11-15T00:38:43.679Z,49.40
2022-11-15T00:41:11.664Z,49.30
2022-11-15T00:43:40.776Z,49.40
2022-11-15T00:46:10.456Z,49.40
2022-11-15T00:48:38.568Z,49.50
2022-11-15T00:51:06.710Z,49.50
2022-11-15T00:53:36.519Z,49.50
2022-11-15T00:56:04.648Z,49.40
2022-11-15T00:58:32.616Z,49.40
2022-11-15T01:01:08.853Z,49.50
2022-11-15T01:03:36.885Z,49.50
2022-11-15T01:06:05.513Z,49.30
2022-11-15T01:08:34.781Z,49.30
2022-11-15T01:11:03.861Z,49.30
2022-11-15T01:13:33.471Z,49.30
2022-11-15T01:16:07.099Z,49.90
2022-11-15T01:18:35.110Z,49.30
2022-11-15T01:21:07.818Z,49.30
2022-11-15T01:23:37.704Z,49.30
2022-11-15T01:26:08.520Z,49.20
2022-11-15T01:28:39.197Z,49.20
2022-11-15T01:31:09.740Z,49.20
2022-11-15T01:33:38.097Z,49.20
2022-11-15T01:36:07.638Z,49.10
2022-11-15T01:38:37.004Z,49.10
2022-11-15T01:41:05.228Z,49.10
2022-11-15T01:43:35.308Z,49.00
2022-11-15T01:46:07.956Z,49.00
2022-11-15T01:48:37.011Z,49.10
2022-11-15T01:51:08.812Z,49.00
2022-11-15T01:53:41.303Z,49.00
2022-11-15T01:56:13.488Z,49.10
2022-11-15T01:58:43.190Z,49.10
2022-11-15T02:01:11.164Z,49.10
2022-11-15T02:03:46.066Z,49.10
2022-11-15T02:06:14.023Z,49.10
2022-11-15T02:08:43.399Z,49.10
2022-11-15T02:11:11.526Z,49.20
2022-11-15T02:13:39.669Z,49.20
2022-11-15T02:16:15.568Z,49.20
2022-11-15T02:18:50.417Z,49.20
2022-11-15T02:21:25.369Z,49.30
2022-11-15T02:24:46.690Z,49.30
2022-11-15T02:27:55.734Z,49.40
2022-11-15T02:30:28.025Z,49.50
2022-11-15T02:33:00.104Z,49.40
2022-11-15T02:35:39.473Z,49.50
2022-11-15T02:38:14.096Z,49.50
2022-11-15T02:40:50.569Z,49.50
2022-11-15T02:43:41.765Z,49.50
2022-11-15T02:46:16.753Z,49.50
2022-11-15T02:48:46.733Z,49.50
2022-11-15T02:51:15.600Z,49.40
2022-11-15T02:53:43.550Z,49.30
2022-11-15T02:56:13.613Z,49.30
2022-11-15T02:59:01.082Z,49.30
2022-11-15T03:01:43.685Z,49.30
2022-11-15T03:04:22.936Z,49.30
2022-11-15T03:06:58.733Z,49.20
2022-11-15T03:09:34.843Z,49.10
2022-11-15T03:12:09.245Z,49.00
2022-11-15T03:14:41.255Z,49.00
2022-11-15T03:17:18.118Z,49.30
2022-11-15T03:19:48.661Z,49.00
2022-11-15T03:22:18.434Z,48.80
2022-11-15T03:24:48.665Z,48.80
2022-11-15T03:27:21.558Z,48.90
2022-11-15T03:29:53.967Z,48.90
2022-11-15T03:32:27.595Z,48.80
2022-11-15T03:35:00.504Z,48.90
2022-11-15T03:37:34.645Z,48.80
2022-11-15T03:40:03.708Z,48.90
2022-11-15T03:42:36.916Z,48.80
2022-11-15T03:45:12.882Z,48.90
2022-11-15T03:47:48.508Z,48.90
2022-11-15T03:50:20.063Z,48.90
2022-11-15T03:52:49.268Z,49.00
2022-11-15T03:55:20.161Z,48.90
2022-11-15T03:57:50.087Z,48.90
2022-11-15T04:00:18.851Z,48.80
2022-11-15T04:02:48.137Z,48.80
2022-11-15T04:05:16.163Z,48.80
2022-11-15T04:07:44.074Z,48.80
2022-11-15T04:10:12.737Z,48.80
2022-11-15T04:12:44.084Z,48.80
2022-11-15T04:15:13.832Z,48.80
2022-11-15T04:17:43.553Z,48.80
2022-11-15T04:20:33.221Z,48.80
2022-11-15T04:23:19.728Z,48.80
2022-11-15T04:25:51.070Z,48.80
2022-11-15T04:28:19.100Z,48.70
2022-11-15T04:30:47.434Z,48.70
2022-11-15T04:33:15.933Z,48.80
2022-11-15T04:36:05.664Z,48.90
2022-11-15T04:38:32.644Z,48.90
2022-11-15T04:41:00.569Z,48.90
2022-11-15T04:43:28.815Z,48.90
2022-11-15T04:45:56.947Z,48.80
2022-11-15T04:48:24.825Z,48.80
2022-11-15T04:50:54.106Z,48.80
2022-11-15T04:53:22.023Z,48.80
2022-11-15T04:55:49.921Z,48.80
2022-11-15T04:58:17.816Z,48.80
2022-11-15T05:00:45.723Z,48.90
2022-11-15T05:03:31.423Z,49.00
2022-11-15T05:06:01.105Z,49.00
2022-11-15T05:08:29.074Z,48.90
2022-11-15T05:10:56.981Z,48.90
2022-11-15T05:13:25.325Z,48.90
2022-11-15T05:15:53.236Z,48.40
2022-11-15T05:18:23.733Z,48.80
2022-11-15T05:20:52.203Z,48.80
2022-11-15T05:23:21.478Z,48.70
2022-11-15T05:25:49.349Z,48.70
2022-11-15T05:28:17.237Z,48.70
2022-11-15T05:30:45.196Z,48.70
2022-11-15T05:33:13.319Z,48.60
2022-11-15T05:35:43.602Z,48.60
2022-11-15T05:38:11.504Z,48.70
2022-11-15T05:40:40.906Z,48.60
2022-11-15T05:43:08.925Z,48.70
2022-11-15T05:45:37.145Z,48.70
2022-11-15T05:48:09.564Z,48.80
2022-11-15T05:50:38.855Z,48.90
2022-11-15T05:53:07.546Z,48.90
2022-11-15T05:55:35.821Z,48.90
2022-11-15T05:58:05.082Z,49.00
2022-11-15T06:00:33.051Z,49.10
2022-11-15T06:03:01.052Z,49.00
2022-11-15T06:05:28.937Z,49.10
2022-11-15T06:07:59.929Z,49.00
2022-11-15T06:10:28.382Z,49.00
2022-11-15T06:13:00.059Z,48.80
2022-11-15T06:15:29.405Z,48.80
2022-11-15T06:17:59.430Z,48.70
2022-11-15T06:20:27.687Z,48.70
2022-11-15T06:22:59.497Z,48.80
2022-11-15T06:25:27.451Z,48.90
2022-11-15T06:27:57.106Z,48.80
2022-11-15T06:30:26.025Z,48.90
2022-11-15T06:33:00.870Z,48.80
2022-11-15T06:35:29.281Z,48.90
2022-11-15T06:37:57.249Z,48.70
2022-11-15T06:40:25.136Z,48.80
2022-11-15T06:42:53.024Z,48.90
2022-11-15T06:45:20.938Z,48.90
2022-11-15T06:47:49.134Z,49.00
2022-11-15T06:50:18.623Z,49.50
2022-11-15T06:52:46.508Z,49.00
2022-11-15T06:55:14.581Z,49.10
2022-11-15T06:57:49.577Z,49.10
2022-11-15T07:00:18.999Z,49.30
2022-11-15T07:02:46.888Z,49.40
2022-11-15T07:05:15.852Z,49.40
2022-11-15T07:07:45.184Z,49.50
2022-11-15T07:10:13.129Z,49.60
2022-11-15T07:12:41.011Z,49.50
2022-11-15T07:15:10.185Z,49.70
2022-11-15T07:17:38.098Z,49.60
2022-11-15T07:20:07.141Z,49.60
2022-11-15T07:22:35.035Z,49.70
2022-11-15T07:25:04.628Z,49.70
2022-11-15T07:27:32.785Z,49.80
2022-11-15T07:30:00.777Z,50.00
2022-11-15T07:32:28.867Z,50.30
2022-11-15T07:34:56.942Z,50.50
2022-11-15T07:37:24.888Z,50.60
2022-11-15T07:39:52.844Z,50.80
2022-11-15T07:42:39.362Z,50.80
2022-11-15T07:45:08.207Z,51.00
2022-11-15T07:47:36.125Z,51.10
2022-11-15T07:50:04.273Z,51.20
2022-11-15T07:52:32.147Z,51.20
2022-11-15T07:55:00.025Z,51.90
2022-11-15T07:57:29.275Z,51.50
2022-11-15T07:59:57.285Z,51.60
2022-11-15T08:02:29.179Z,51.60
2022-11-15T08:04:58.366Z,51.60
2022-11-15T08:07:26.497Z,51.50
2022-11-15T08:09:55.540Z,51.60
2022-11-15T08:12:23.926Z,51.70
2022-11-15T08:14:53.235Z,51.80
2022-11-15T08:17:21.127Z,51.90
2022-11-15T08:19:49.122Z,52.00
2022-11-15T08:22:17.041Z,52.10
2022-11-15T08:24:45.563Z,52.10
2022-11-15T08:27:16.592Z,52.20
2022-11-15T08:29:44.958Z,52.40
2022-11-15T08:32:14.222Z,52.60
2022-11-15T08:34:42.121Z,52.70
2022-11-15T08:37:09.992Z,52.70
2022-11-15T08:39:38.894Z,52.70
2022-11-15T08:42:06.878Z,52.60
2022-11-15T08:44:34.916Z,52.60
2022-11-15T08:47:02.842Z,52.50
2022-11-15T08:49:32.101Z,52.50
2022-11-15T08:52:00.005Z,52.50
2022-11-15T08:54:27.899Z,52.50
2022-11-15T08:56:55.823Z,52.60
2022-11-15T08:59:24.373Z,52.50
2022-11-15T09:01:52.468Z,52.60
2022-11-15T09:04:20.537Z,52.70
2022-11-15T09:06:49.845Z,52.70
2022-11-15T09:09:17.728Z,52.70
2022-11-15T09:11:45.632Z,52.70
2022-11-15T09:14:13.935Z,52.70
2022-11-15T09:16:42.024Z,52.80
2022-11-15T09:19:11.831Z,52.80
2022-11-15T09:21:40.029Z,52.10
2022-11-15T09:24:09.706Z,52.10
2022-11-15T09:26:37.672Z,52.20
2022-11-15T09:29:05.977Z,52.30
2022-11-15T09:31:33.969Z,52.50
2022-11-15T09:34:01.851Z,52.60
2022-11-15T09:36:29.762Z,52.80
2022-11-15T09:38:59.205Z,52.90
2022-11-15T09:41:52.562Z,52.90
2022-11-15T09:44:37.080Z,53.00
2022-11-15T09:47:21.060Z,53.00
2022-11-15T09:49:56.742Z,53.10
2022-11-15T09:52:26.700Z,53.30
2022-11-15T09:54:56.335Z,53.30
2022-11-15T09:57:33.295Z,53.60
2022-11-15T10:00:45.428Z,53.80
2022-11-15T10:03:10.221Z,54.10
2022-11-15T10:05:42.664Z,54.60
2022-11-15T10:08:24.785Z,55.20
2022-11-15T10:11:35.485Z,56.00
2022-11-15T10:13:53.086Z,56.90
2022-11-15T10:16:56.649Z,57.90
2022-11-15T10:19:31.347Z,58.50
2022-11-15T10:22:08.557Z,59.20
2022-11-15T10:24:41.828Z,59.70
2022-11-15T10:27:13.146Z,60.20
2022-11-15T10:29:48.848Z,60.80
2022-11-15T10:32:18.781Z,61.70
2022-11-15T10:34:47.393Z,62.80
2022-11-15T10:37:15.814Z,63.90
2022-11-15T10:39:44.146Z,64.40
2022-11-15T10:42:27.441Z,65.40
2022-11-15T10:44:57.027Z,66.20
2022-11-15T10:47:37.779Z,68.00
2022-11-15T10:50:09.475Z,68.80
2022-11-15T10:52:39.185Z,69.50
2022-11-15T10:55:24.838Z,69.30
2022-11-15T10:57:54.815Z,68.30
2022-11-15T11:00:34.573Z,68.80
2022-11-15T11:03:04.470Z,67.80
2022-11-15T11:05:39.690Z,67.80
2022-11-15T11:08:25.066Z,67.50
2022-11-15T11:11:01.939Z,64.60
2022-11-15T11:13:32.742Z,63.60
2022-11-15T11:16:21.238Z,63.20
2022-11-15T11:18:59.109Z,60.60
2022-11-15T11:21:40.118Z,61.80
2022-11-15T11:24:17.001Z,62.40
2022-11-15T11:26:56.808Z,62.60
2022-11-15T11:29:40.772Z,66.40
2022-11-15T11:32:25.568Z,64.80
2022-11-15T11:35:01.060Z,97.60
2022-11-15T11:37:37.585Z,66.80
2022-11-15T11:42:51.005Z,64.00
2022-11-15T11:45:28.852Z,67.60
2022-11-15T11:48:02.196Z,63.80
2022-11-15T11:50:30.347Z,75.90
2022-11-15T11:53:04.017Z,76.50
2022-11-15T11:55:38.800Z,66.80
2022-11-15T11:58:14.178Z,61.60
2022-11-15T12:05:48.726Z,82.50
2022-11-15T12:11:06.660Z,61.00
2022-11-15T12:13:37.715Z,60.10
2022-11-15T12:16:11.861Z,62.10
2022-11-15T12:18:42.845Z,60.80
2022-11-15T12:21:23.991Z,57.90
2022-11-15T12:24:00.851Z,57.00
2022-11-15T12:26:33.244Z,58.00
2022-11-15T12:29:08.092Z,55.30
2022-11-15T12:31:40.523Z,53.80
2022-11-15T12:34:31.849Z,51.90
2022-11-15T12:36:59.831Z,50.20
2022-11-15T12:40:03.969Z,49.20
2022-11-15T12:42:43.510Z,47.10
2022-11-15T12:45:28.813Z,45.80
2022-11-15T12:48:20.379Z,45.00
2022-11-15T12:50:59.868Z,44.80
2022-11-15T12:53:32.555Z,44.20
2022-11-15T12:56:25.394Z,44.30
2022-11-15T12:58:56.970Z,44.00
2022-11-15T13:02:00.607Z,44.50
2022-11-15T13:04:30.988Z,44.30
2022-11-15T13:07:03.929Z,44.80
2022-11-15T13:09:59.810Z,45.00
2022-11-15T13:13:07.121Z,45.10
2022-11-15T13:15:57.542Z,45.50
2022-11-15T13:18:35.843Z,46.00
2022-11-15T13:21:27.140Z,46.30
2022-11-15T13:23:57.825Z,46.50
2022-11-15T13:26:26.287Z,46.70
2022-11-15T13:28:56.375Z,46.70
2022-11-15T13:31:28.890Z,46.90
2022-11-15T13:34:00.052Z,47.00
2022-11-15T13:36:30.381Z,47.00
2022-11-15T13:39:02.334Z,47.00
2022-11-15T13:41:32.464Z,47.30
2022-11-15T13:44:01.714Z,47.40
2022-11-15T13:46:30.726Z,47.50
2022-11-15T13:49:00.713Z,47.60
2022-11-15T13:51:36.145Z,47.80
2022-11-15T13:54:14.691Z,47.80
2022-11-15T13:56:46.654Z,47.80
2022-11-15T13:59:22.566Z,47.80
2022-11-15T14:01:52.041Z,48.00
2022-11-15T14:04:23.600Z,47.80
2022-11-15T14:06:54.532Z,48.00
2022-11-15T14:09:42.204Z,48.00
2022-11-15T14:12:32.743Z,48.10
2022-11-15T14:15:02.937Z,48.10
2022-11-15T14:17:45.722Z,48.00
2022-11-15T14:20:36.185Z,48.20
2022-11-15T14:23:06.313Z,48.20
2022-11-15T14:25:36.389Z,48.10
2022-11-15T14:28:17.517Z,48.10
2022-11-15T14:30:50.996Z,48.70
2022-11-15T14:33:24.982Z,48.10
2022-11-15T14:35:53.912Z,48.20
2022-11-15T14:38:21.795Z,48.00
2022-11-15T14:40:51.267Z,48.10
2022-11-15T14:43:19.137Z,48.20
2022-11-15T14:45:47.077Z,48.10
2022-11-15T14:48:15.022Z,48.70
2022-11-15T14:50:43.003Z,48.10
2022-11-15T14:53:14.564Z,48.10
2022-11-15T14:55:42.579Z,48.20
2022-11-15T14:58:12.604Z,48.10
2022-11-15T15:00:42.394Z,48.20
2022-11-15T15:03:10.792Z,48.20
2022-11-15T15:05:41.152Z,48.20
2022-11-15T15:08:10.127Z,48.20
2022-11-15T15:10:41.436Z,48.10
2022-11-15T15:13:18.582Z,48.00
2022-11-15T15:15:46.588Z,48.10
2022-11-15T15:18:14.531Z,47.90
2022-11-15T15:20:43.956Z,47.90
2022-11-15T15:23:17.387Z,48.00
2022-11-15T15:25:46.481Z,48.00
2022-11-15T15:28:16.257Z,47.90
2022-11-15T15:30:44.580Z,47.90
2022-11-15T15:33:12.617Z,47.80
2022-11-15T15:35:40.648Z,47.90
2022-11-15T15:38:08.617Z,47.90
2022-11-15T15:40:36.493Z,47.80
2022-11-15T15:43:04.433Z,47.70
2022-11-15T15:45:34.812Z,47.70
2022-11-15T15:48:02.691Z,47.70
2022-11-15T15:50:33.974Z,47.60
2022-11-15T15:53:03.974Z,47.70
2022-11-15T15:55:32.143Z,47.60
2022-11-15T15:58:00.409Z,47.60
2022-11-15T16:00:28.593Z,47.60
2022-11-15T16:02:57.953Z,47.60
2022-11-15T16:05:25.950Z,47.70
2022-11-15T16:07:53.865Z,47.60
2022-11-15T16:10:25.812Z,47.60
2022-11-15T16:12:54.382Z,47.70
2022-11-15T16:15:24.550Z,47.60
2022-11-15T16:17:54.289Z,47.70
2022-11-15T16:20:35.327Z,47.70
2022-11-15T16:23:08.839Z,47.90
2022-11-15T16:25:41.797Z,47.70
2022-11-15T16:28:18.987Z,47.70
2022-11-15T16:30:49.916Z,47.80
2022-11-15T16:33:21.433Z,48.10
2022-11-15T16:35:50.693Z,47.80
2022-11-15T16:38:19.404Z,47.80
2022-11-15T16:40:47.436Z,47.70
2022-11-15T16:43:15.392Z,47.80
2022-11-15T16:45:43.535Z,47.80
2022-11-15T16:48:22.901Z,47.90
2022-11-15T16:50:52.862Z,48.10
2022-11-15T16:53:20.741Z,48.00
2022-11-15T16:55:48.635Z,48.00
2022-11-15T16:58:16.497Z,48.00
2022-11-15T17:00:44.470Z,48.00
2022-11-15T17:03:12.484Z,47.90
2022-11-15T17:05:40.372Z,47.90
2022-11-15T17:08:10.027Z,47.90
2022-11-15T17:10:41.393Z,48.00
2022-11-15T17:13:10.520Z,47.90
2022-11-15T17:15:38.608Z,48.40
2022-11-15T17:18:07.427Z,47.80
2022-11-15T17:20:35.721Z,47.80
2022-11-15T17:23:03.624Z,47.90
2022-11-15T17:25:32.888Z,47.90
2022-11-15T17:28:00.848Z,47.90
2022-11-15T17:30:28.786Z,47.90
2022-11-15T17:32:56.769Z,48.10
2022-11-15T17:35:25.669Z,48.10
2022-11-15T17:37:53.673Z,48.10
2022-11-15T17:40:21.566Z,48.10
2022-11-15T17:42:50.866Z,48.20
2022-11-15T17:45:18.904Z,48.10
2022-11-15T17:47:46.809Z,48.10
2022-11-15T17:50:15.046Z,48.10
2022-11-15T17:52:42.968Z,48.00
2022-11-15T17:55:11.325Z,48.00
2022-11-15T17:57:39.330Z,48.00
2022-11-15T18:00:10.536Z,48.00
2022-11-15T18:02:38.395Z,48.10
2022-11-15T18:05:07.270Z,48.10
2022-11-15T18:07:35.265Z,48.10
2022-11-15T18:10:03.161Z,48.00
2022-11-15T18:12:31.099Z,48.20
2022-11-15T18:15:00.058Z,48.10
2022-11-15T18:17:29.356Z,48.50
2022-11-15T18:19:57.254Z,48.10
2022-11-15T18:22:25.159Z,48.00
2022-11-15T18:24:53.101Z,48.00
2022-11-15T18:27:20.985Z,48.10
2022-11-15T18:29:48.929Z,48.00
2022-11-15T18:32:17.807Z,48.00
2022-11-15T18:34:47.072Z,48.10
2022-11-15T18:37:15.107Z,48.00
2022-11-15T18:39:43.007Z,48.00
2022-11-15T18:42:11.018Z,48.00
2022-11-15T18:44:38.985Z,48.10
2022-11-15T18:47:06.912Z,48.20
2022-11-15T18:49:34.851Z,48.20
2022-11-15T18:52:04.165Z,48.10
2022-11-15T18:54:32.079Z,48.10
2022-11-15T18:57:00.170Z,48.20
2022-11-15T18:59:28.166Z,48.20
2022-11-15T19:01:56.911Z,48.20
2022-11-15T19:04:25.019Z,48.30
2022-11-15T19:06:53.509Z,48.30
2022-11-15T19:09:27.149Z,48.40
2022-11-15T19:11:55.052Z,48.60
2022-11-15T19:14:25.245Z,48.60
2022-11-15T19:16:54.619Z,48.70
2022-11-15T19:19:24.421Z,48.70
2022-11-15T19:21:52.664Z,48.60
2022-11-15T19:24:22.008Z,49.00
2022-11-15T19:26:49.975Z,48.40
2022-11-15T19:29:18.255Z,48.30
2022-11-15T19:31:48.453Z,48.40
2022-11-15T19:34:16.514Z,48.40
2022-11-15T19:36:45.452Z,48.40
2022-11-15T19:39:17.828Z,48.50
2022-11-15T19:41:47.696Z,48.40
2022-11-15T19:44:16.022Z,48.50
2022-11-15T19:46:44.320Z,48.50
2022-11-15T19:49:12.419Z,48.50
2022-11-15T19:51:42.421Z,48.60
2022-11-15T19:54:10.943Z,48.70
2022-11-15T19:56:39.703Z,48.70
2022-11-15T19:59:11.450Z,48.80
2022-11-15T20:01:39.731Z,48.80
2022-11-15T20:04:10.042Z,48.80
2022-11-15T20:06:40.488Z,48.80
2022-11-15T20:09:08.911Z,48.80
2022-11-15T20:11:38.127Z,48.80
2022-11-15T20:14:08.898Z,48.80
2022-11-15T20:16:38.699Z,48.80
2022-11-15T20:19:07.298Z,48.80
2022-11-15T20:21:35.613Z,48.80
2022-11-15T20:24:03.611Z,48.80
2022-11-15T20:26:32.230Z,48.80
2022-11-15T20:29:03.042Z,48.90
2022-11-15T20:31:32.174Z,48.80
2022-11-15T20:34:01.488Z,48.90
2022-11-15T20:36:29.832Z,48.90
2022-11-15T20:38:59.312Z,48.90
2022-11-15T20:41:28.039Z,48.90
2022-11-15T20:43:56.274Z,48.90
2022-11-15T20:46:24.282Z,49.00
2022-11-15T20:48:52.190Z,49.00
2022-11-15T20:51:21.831Z,49.00
2022-11-15T20:53:50.221Z,49.00
2022-11-15T20:56:19.279Z,49.00
2022-11-15T20:58:50.091Z,49.10
2022-11-15T21:01:23.237Z,49.10
2022-11-15T21:03:51.897Z,49.10
2022-11-15T21:06:21.547Z,49.20
2022-11-15T21:09:07.474Z,49.20
2022-11-15T21:11:52.964Z,49.10
2022-11-15T21:14:20.922Z,49.10
2022-11-15T21:16:48.973Z,49.10
2022-11-15T21:19:16.983Z,49.20
2022-11-15T21:21:46.333Z,49.30
2022-11-15T21:24:14.400Z,49.50
2022-11-15T21:26:42.616Z,49.50
2022-11-15T21:29:10.510Z,49.50
2022-11-15T21:31:38.462Z,49.40
2022-11-15T21:34:07.325Z,49.50
2022-11-15T21:36:35.221Z,49.50
2022-11-15T21:39:04.628Z,49.50
2022-11-15T21:41:32.992Z,49.50
2022-11-15T21:44:01.975Z,49.40
2022-11-15T21:46:30.575Z,49.40
2022-11-15T21:48:59.251Z,49.30
2022-11-15T21:51:27.285Z,49.30
2022-11-15T21:53:56.842Z,49.30
2022-11-15T21:56:27.614Z,49.30
2022-11-15T21:58:56.262Z,49.50
2022-11-15T22:01:43.032Z,49.50
2022-11-15T22:04:11.197Z,49.50
2022-11-15T22:06:39.456Z,50.00
2022-11-15T22:09:08.472Z,49.50
2022-11-15T22:11:38.174Z,49.50
2022-11-15T22:14:06.935Z,49.60
2022-11-15T22:16:35.829Z,49.50
2022-11-15T22:19:03.945Z,49.50
2022-11-15T22:21:32.242Z,49.50
2022-11-15T22:24:00.286Z,49.40
2022-11-15T22:26:28.310Z,49.50
2022-11-15T22:28:57.717Z,49.50
2022-11-15T22:31:25.726Z,49.50
2022-11-15T22:33:53.657Z,49.40
2022-11-15T22:36:21.721Z,49.50
2022-11-15T22:38:49.733Z,49.40
2022-11-15T22:41:17.798Z,49.40
2022-11-15T22:43:48.111Z,49.80
2022-11-15T22:46:17.563Z,49.30
2022-11-15T22:48:45.527Z,49.30
2022-11-15T22:51:13.580Z,49.40
2022-11-15T22:53:41.591Z,49.40
2022-11-15T22:56:10.560Z,49.40
2022-11-15T22:58:38.821Z,49.40
2022-11-15T23:01:07.538Z,49.40
2022-11-15T23:03:37.081Z,49.40
2022-11-15T23:06:06.951Z,49.50
2022-11-15T23:08:35.369Z,49.40
2022-11-15T23:11:27.555Z,49.30
2022-11-15T23:13:55.625Z,49.30
2022-11-15T23:16:25.700Z,49.20
2022-11-15T23:18:57.380Z,49.30
2022-11-15T23:21:44.560Z,49.40
2022-11-15T23:24:13.938Z,49.40
2022-11-15T23:26:43.533Z,49.30
2022-11-15T23:29:13.894Z,49.20
2022-11-15T23:32:02.313Z,49.20
2022-11-15T23:34:33.198Z,49.30
2022-11-15T23:37:01.279Z,49.30
2022-11-15T23:39:29.748Z,49.40
2022-11-15T23:41:58.092Z,49.50
2022-11-15T23:44:26.649Z,49.50
2022-11-15T23:46:54.933Z,49.50
2022-11-15T23:49:23.043Z,49.50
2022-11-15T23:51:54.367Z,49.40
2022-11-15T23:54:22.321Z,49.60
2022-11-15T23:56:50.276Z,49.60
2022-11-15T23:59:18.454Z,49.60
